Startpagina
METAR-TAF:

METAR-TAF

Vliegvelden :

Fort Collins-Loveland Municipal Airport

Fort Collins / Loveland, Colorado, Verenigde Staten

breedte: 40-27N, lengte: 105-01W, hoogte: 1529 m

Actueel weer

Dit bericht is 37 minuten geleden gemaakt, om 10:56 UTC
Wind 5 kt uit het noorden
Temperatuur 18°C
Vochtigheid 52%
Druk 1020 hPa
Zicht: 16.1 km
Onbewolkt

METAR: KFNL 191056Z AUTO 01005KT 10SM CLR 18/08 A3012 RMK AO2 SLP124 T01830083

Tijdstip: 05:33 (11:33 UTC)


TAF: ontbreekt

Waarnemingen en weersverwachtingen van meer dan 4000 vliegvelden (METAR en TAF).

De beschikbare stations zijn de gele en rode punten op de kaart.

Ga met uw muis naar het station om de naam te zien.

Klik dan om waarnemingen en weersverwachtingen te zien.

kaart wijzigen: klik op de groene knoppen met een zwart kruis om in te zoomen, op de groene knop met een streepje om uit te zoomen of op de groene pijlen voor aangrenzende kaarten.


METAR-TAF: